Terminal Aerodrome Forecast
Issued by NWS Charleston, WV

Current Version | Previous Version | Graphics & Text | Print | Product List | Glossary Off
Versions: 1 2 3 4 5 6 7 8 9 10 11 12 13 14 15 16 17 18 19 20 21 22 23 24

000
FTUS41 KRLX 272300 RRA
TAFPKB
TAF
KPKB 272341Z 2800/2824 29006KT 6SM -SHSN OVC035
      TEMPO 2800/2802 4SM -SHSN BKN025
     FM280300 28006KT 6SM -SHSN BKN030
     FM280900 28005KT P6SM BKN030
     FM281200 28004KT P6SM BKN035
     FM281400 25005KT P6SM SCT035 BKN120
     FM282100 21006KT P6SM BKN090=

USA.gov is the U.S. government's official web portal to all federal, state and local government web resources and services.